Time;durP1;ratioP1;P1;durP2;ratioP2;P2;SDS_P1;SDS_P2;PMS_P1;PMS_P2;Temp;Humidity;BMP_temperature;BMP_pressure;BME280_temperature;BME280_humidity;BME280_pressure;Samples;Min_cycle;Max_cycle;Signal;HPM_P1;HPM_P2
2022/08/27 00:00:57;;;;;;;9.60;5.38;;;;;;;;;;5086404;28;20056;-64
2022/08/27 00:03:27;;;;;;;14.32;5.32;;;;;;;;;;5036655;28;20056;-64
2022/08/27 00:05:57;;;;;;;14.88;5.15;;;;;;;;;;5069345;28;20040;-64
2022/08/27 00:08:28;;;;;;;12.23;4.93;;;;;;;;;;5069518;28;20440;-64
2022/08/27 00:10:59;;;;;;;10.32;4.93;;;;;;;;;;5069577;28;20057;-64
2022/08/27 00:13:29;;;;;;;10.02;4.47;;;;;;;;;;5029140;28;20052;-64
2022/08/27 00:15:59;;;;;;;15.88;5.30;;;;;;;;;;5029771;28;20080;-64
2022/08/27 00:18:30;;;;;;;13.27;5.10;;;;;;;;;;5046030;28;20452;-64
2022/08/27 00:21:01;;;;;;;13.63;5.18;;;;;;;;;;5029571;28;20054;-64
2022/08/27 00:23:36;;;;;;;18.58;5.30;;;;;;;;;;4980650;28;20052;-65
2022/08/27 00:26:08;;;;;;;13.30;5.60;;;;;;;;;;5009550;28;20065;-65
2022/08/27 00:28:38;;;;;;;13.45;5.13;;;;;;;;;;5009692;28;20066;-65
2022/08/27 00:31:10;;;;;;;10.55;4.82;;;;;;;;;;5009687;28;20102;-65
2022/08/27 00:33:42;;;;;;;11.52;4.72;;;;;;;;;;4977225;28;20050;-65
2022/08/27 00:36:13;;;;;;;13.63;4.80;;;;;;;;;;4995782;28;20580;-65
2022/08/27 00:38:43;;;;;;;12.88;5.55;;;;;;;;;;5032420;28;20064;-65
2022/08/27 00:41:14;;;;;;;12.60;5.53;;;;;;;;;;5033301;28;20113;-65
2022/08/27 00:43:56;;;;;;;20.67;5.88;;;;;;;;;;5033161;28;20057;-65
2022/08/27 00:46:52;;;;;;;13.35;5.30;;;;;;;;;;5033234;28;20539;-65
2022/08/27 00:49:44;;;;;;;16.95;5.72;;;;;;;;;;5033290;28;20041;-65
2022/08/27 00:52:29;;;;;;;16.38;6.05;;;;;;;;;;5052231;28;20414;-65
2022/08/27 00:55:06;;;;;;;14.70;5.60;;;;;;;;;;5036077;28;20053;-65
2022/08/27 00:57:40;;;;;;;15.30;5.60;;;;;;;;;;5053099;28;20049;-65
2022/08/27 01:00:14;;;;;;;17.77;5.95;;;;;;;;;;5003370;28;20061;-65
2022/08/27 01:02:46;;;;;;;13.10;5.28;;;;;;;;;;5056005;28;20048;-65
2022/08/27 01:05:20;;;;;;;14.93;5.30;;;;;;;;;;5055731;28;20055;-65
2022/08/27 01:07:56;;;;;;;16.30;5.50;;;;;;;;;;5039377;28;20060;-65
2022/08/27 01:10:29;;;;;;;12.50;4.90;;;;;;;;;;5032179;28;20097;-65
2022/08/27 01:12:59;;;;;;;;;;;;;;;;;;5017171;28;20062;-65
2022/08/27 01:15:31;;;;;;;13.05;5.63;;;;;;;;;;4984074;28;19993;-65
2022/08/27 01:18:05;;;;;;;10.55;4.85;;;;;;;;;;5032775;28;20061;-65
2022/08/27 01:20:47;;;;;;;21.20;6.00;;;;;;;;;;5032689;28;20057;-65
2022/08/27 01:23:31;;;;;;;15.63;5.13;;;;;;;;;;5032563;28;20049;-65
2022/08/27 01:26:05;;;;;;;18.35;5.57;;;;;;;;;;5032407;28;20057;-65
2022/08/27 01:28:36;;;;;;;15.45;5.32;;;;;;;;;;5032332;28;20058;-65
2022/08/27 01:31:11;;;;;;;17.10;5.70;;;;;;;;;;5032428;28;20049;-65
2022/08/27 01:33:58;;;;;;;20.58;5.25;;;;;;;;;;5032485;28;20516;-66
2022/08/27 01:36:29;;;;;;;11.98;5.18;;;;;;;;;;5017017;28;20065;-65
2022/08/27 01:38:59;;;;;;;18.50;5.70;;;;;;;;;;5015709;28;20068;-65
2022/08/27 01:41:30;;;;;;;24.15;6.13;;;;;;;;;;5032193;28;20060;-65
2022/08/27 01:44:01;;;;;;;19.88;6.00;;;;;;;;;;5051183;28;20064;-65
2022/08/27 01:46:31;;;;;;;14.88;5.72;;;;;;;;;;5031849;28;20045;-65
2022/08/27 01:49:02;;;;;;;16.10;5.60;;;;;;;;;;5067855;28;20393;-65
2022/08/27 01:51:33;;;;;;;15.82;6.28;;;;;;;;;;5055703;28;20063;-65
2022/08/27 01:54:04;;;;;;;16.52;5.68;;;;;;;;;;5006133;28;20057;-65
2022/08/27 01:56:34;;;;;;;21.05;6.63;;;;;;;;;;5022761;28;20523;-65
2022/08/27 01:59:04;;;;;;;21.40;7.18;;;;;;;;;;5071888;28;20059;-64
2022/08/27 02:01:35;;;;;;;16.92;5.72;;;;;;;;;;5071910;28;20083;-65
2022/08/27 02:04:07;;;;;;;17.48;5.90;;;;;;;;;;5038608;28;20071;-65
2022/08/27 02:06:37;;;;;;;13.18;5.60;;;;;;;;;;5071455;28;20507;-65
2022/08/27 02:09:07;;;;;;;19.20;5.70;;;;;;;;;;5071737;28;20436;-65
2022/08/27 02:11:38;;;;;;;17.17;5.78;;;;;;;;;;5071789;28;20512;-65
2022/08/27 02:14:13;;;;;;;13.90;5.50;;;;;;;;;;5071538;28;20044;-65
2022/08/27 02:16:44;;;;;;;19.90;5.53;;;;;;;;;;5071539;28;20052;-65
2022/08/27 02:19:21;;;;;;;13.95;6.18;;;;;;;;;;5038517;28;20056;-65
2022/08/27 02:21:52;;;;;;;21.90;6.50;;;;;;;;;;5074172;28;20511;-65
2022/08/27 02:24:23;;;;;;;12.95;5.53;;;;;;;;;;5073638;28;20040;-65
2022/08/27 02:26:54;;;;;;;18.85;5.28;;;;;;;;;;5054845;28;20049;-66
2022/08/27 02:29:24;;;;;;;15.90;6.45;;;;;;;;;;5037991;28;20523;-65
2022/08/27 02:31:55;;;;;;;19.98;5.85;;;;;;;;;;5087522;28;20056;-66
2022/08/27 02:34:26;;;;;;;14.60;5.50;;;;;;;;;;5071105;28;20060;-66
2022/08/27 02:36:56;;;;;;;18.33;6.40;;;;;;;;;;5070745;28;20078;-66
2022/08/27 02:39:27;;;;;;;13.57;5.90;;;;;;;;;;5071061;28;20483;-65
2022/08/27 02:41:57;;;;;;;16.38;5.32;;;;;;;;;;5070984;28;20079;-66
2022/08/27 02:44:28;;;;;;;15.15;6.00;;;;;;;;;;5054937;28;20408;-66
2022/08/27 02:46:58;;;;;;;18.25;5.97;;;;;;;;;;5054705;28;20056;-66
2022/08/27 02:49:29;;;;;;;20.98;6.28;;;;;;;;;;5021334;28;20052;-66
2022/08/27 02:51:59;;;;;;;20.65;6.30;;;;;;;;;;5070771;28;20059;-66
2022/08/27 02:54:30;;;;;;;17.13;6.03;;;;;;;;;;5070513;28;20048;-66
2022/08/27 02:57:01;;;;;;;18.65;6.55;;;;;;;;;;5070808;28;20156;-65
2022/08/27 02:59:31;;;;;;;19.63;6.03;;;;;;;;;;5021780;28;20059;-66
2022/08/27 03:02:02;;;;;;;14.35;5.68;;;;;;;;;;5070517;28;20060;-66
2022/08/27 03:04:32;;;;;;;14.07;6.07;;;;;;;;;;5021132;28;20753;-66
2022/08/27 03:07:03;;;;;;;22.33;6.07;;;;;;;;;;5070279;28;20045;-66
2022/08/27 03:09:33;;;;;;;16.85;6.00;;;;;;;;;;5053667;28;20060;-65
2022/08/27 03:12:05;;;;;;;15.48;5.68;;;;;;;;;;5070230;28;20065;-66
2022/08/27 03:14:35;;;;;;;13.23;5.50;;;;;;;;;;5080967;28;20055;-66
2022/08/27 03:19:54;;;;;;;11.93;5.88;;;;;;;;;;5090630;28;20475;-66
2022/08/27 03:22:24;;;;;;;14.40;5.95;;;;;;;;;;5073522;28;20055;-66
2022/08/27 03:24:55;;;;;;;20.52;5.78;;;;;;;;;;5090370;28;20067;-66
2022/08/27 03:27:25;;;;;;;13.80;5.40;;;;;;;;;;5090666;28;20060;-66
2022/08/27 03:29:55;;;;;;;11.40;5.13;;;;;;;;;;5073827;28;20067;-66
2022/08/27 03:32:32;;;;;;;11.98;5.40;;;;;;;;;;5073337;28;20086;-65
2022/08/27 03:35:03;;;;;;;12.15;6.07;;;;;;;;;;5090221;28;20427;-66
2022/08/27 03:37:33;;;;;;;19.30;5.75;;;;;;;;;;5090424;28;20059;-66
2022/08/27 03:40:06;;;;;;;16.40;5.55;;;;;;;;;;5090192;28;20055;-66
2022/08/27 03:42:37;;;;;;;11.60;5.82;;;;;;;;;;5084658;28;20068;-66
2022/08/27 03:45:10;;;;;;;14.77;5.85;;;;;;;;;;5069789;28;20060;-66
2022/08/27 03:47:42;;;;;;;15.70;5.65;;;;;;;;;;5070139;28;20044;-66
2022/08/27 03:50:12;;;;;;;13.05;5.63;;;;;;;;;;5069695;28;20048;-66
2022/08/27 03:52:42;;;;;;;14.80;5.10;;;;;;;;;;5036335;28;20574;-66
2022/08/27 03:55:13;;;;;;;15.57;6.32;;;;;;;;;;5069727;28;20041;-65
2022/08/27 03:57:44;;;;;;;16.95;5.30;;;;;;;;;;5020136;28;20044;-66
2022/08/27 04:00:16;;;;;;;17.55;5.65;;;;;;;;;;5089678;28;20048;-66
2022/08/27 04:02:47;;;;;;;12.30;5.28;;;;;;;;;;5089914;28;20063;-66
2022/08/27 04:05:17;;;;;;;11.77;5.13;;;;;;;;;;5089887;28;20066;-66
2022/08/27 04:07:48;;;;;;;12.10;5.10;;;;;;;;;;5089730;28;20144;-66
2022/08/27 04:10:19;;;;;;;11.30;5.38;;;;;;;;;;5089679;28;20044;-66
2022/08/27 04:12:50;;;;;;;14.93;5.95;;;;;;;;;;5089425;28;20060;-65
2022/08/27 04:15:23;;;;;;;12.38;5.07;;;;;;;;;;5089461;28;20044;-66
2022/08/27 04:17:53;;;;;;;10.80;4.57;;;;;;;;;;5013260;28;20405;-66
2022/08/27 04:20:24;;;;;;;16.02;5.00;;;;;;;;;;5029621;28;20049;-66
2022/08/27 04:23:05;;;;;;;12.07;5.63;;;;;;;;;;5029483;28;20045;-65
2022/08/27 04:25:39;;;;;;;12.40;5.22;;;;;;;;;;5029439;28;20053;-65
2022/08/27 04:28:10;;;;;;;13.50;5.13;;;;;;;;;;4996540;28;20057;-66
2022/08/27 04:30:43;;;;;;;17.88;6.13;;;;;;;;;;5025625;28;20069;-65
2022/08/27 04:33:14;;;;;;;14.65;4.78;;;;;;;;;;5009761;28;20058;-65
2022/08/27 04:35:45;;;;;;;12.77;5.28;;;;;;;;;;4977217;28;20050;-65
2022/08/27 04:38:15;;;;;;;16.33;5.70;;;;;;;;;;5009926;28;20466;-66
2022/08/27 04:43:34;;;;;;;14.27;4.82;;;;;;;;;;5010110;28;20097;-66
2022/08/27 04:46:05;;;;;;;9.85;4.50;;;;;;;;;;5009746;28;20431;-66
2022/08/27 04:48:36;;;;;;;13.07;4.85;;;;;;;;;;5014528;28;20060;-66
2022/08/27 04:51:08;;;;;;;12.98;5.00;;;;;;;;;;5088943;28;20048;-66
2022/08/27 04:53:42;;;;;;;11.90;5.13;;;;;;;;;;5105191;28;20063;-66
2022/08/27 04:56:14;;;;;;;12.98;5.03;;;;;;;;;;5109670;28;20048;-65
2022/08/27 04:58:45;;;;;;;11.68;5.07;;;;;;;;;;5109888;28;20542;-66
2022/08/27 05:01:23;;;;;;;15.23;4.53;;;;;;;;;;5109727;28;20051;-66
2022/08/27 05:03:55;;;;;;;11.68;4.80;;;;;;;;;;5089220;28;20095;-66
2022/08/27 05:06:26;;;;;;;9.75;4.35;;;;;;;;;;5089483;28;20052;-66
2022/08/27 05:08:57;;;;;;;12.80;4.65;;;;;;;;;;5072548;28;20052;-66
2022/08/27 05:11:31;;;;;;;10.60;4.68;;;;;;;;;;5089354;28;20044;-65
2022/08/27 05:14:04;;;;;;;14.27;5.22;;;;;;;;;;5089370;28;20409;-66
2022/08/27 05:16:35;;;;;;;12.90;5.10;;;;;;;;;;5048632;28;20555;-65
2022/08/27 05:19:11;;;;;;;10.82;4.78;;;;;;;;;;5049096;28;20064;-66
2022/08/27 05:21:48;;;;;;;11.60;4.95;;;;;;;;;;5049100;28;20056;-66
2022/08/27 05:24:19;;;;;;;14.23;4.82;;;;;;;;;;5016797;28;20567;-65
2022/08/27 05:26:50;;;;;;;10.25;4.22;;;;;;;;;;5012600;28;20066;-66
2022/08/27 05:29:21;;;;;;;10.30;4.53;;;;;;;;;;4981623;28;20073;-65
2022/08/27 05:31:51;;;;;;;11.40;4.30;;;;;;;;;;4993109;28;20065;-65
2022/08/27 05:34:21;;;;;;;13.73;4.97;;;;;;;;;;4993268;28;20096;-65
2022/08/27 05:36:54;;;;;;;9.88;4.32;;;;;;;;;;5032025;28;20064;-66
2022/08/27 05:39:24;;;;;;;12.27;4.05;;;;;;;;;;4999599;28;20062;-65
2022/08/27 05:41:57;;;;;;;11.05;3.97;;;;;;;;;;5012005;28;20449;-66
2022/08/27 05:44:28;;;;;;;12.40;4.95;;;;;;;;;;5012758;28;20054;-66
2022/08/27 05:47:10;;;;;;;12.18;4.68;;;;;;;;;;4972990;28;20051;-66
2022/08/27 05:49:40;;;;;;;11.45;4.45;;;;;;;;;;4973067;28;20163;-66
2022/08/27 05:52:11;;;;;;;10.95;4.53;;;;;;;;;;4973345;28;20082;-66
2022/08/27 05:54:41;;;;;;;10.63;4.47;;;;;;;;;;5016390;28;20413;-66
2022/08/27 05:57:11;;;;;;;10.43;4.43;;;;;;;;;;5012338;28;20061;-66
2022/08/27 06:02:39;;;;;;;10.82;5.13;;;;;;;;;;5012189;28;20492;-66
2022/08/27 06:05:10;;;;;;;9.95;3.72;;;;;;;;;;5011956;28;20556;-65
2022/08/27 06:07:41;;;;;;;10.60;4.10;;;;;;;;;;4963340;28;20069;-65
2022/08/27 06:10:12;;;;;;;13.57;4.90;;;;;;;;;;5011782;28;20440;-65
2022/08/27 06:12:42;;;;;;;9.93;4.22;;;;;;;;;;5011647;28;20049;-65
2022/08/27 06:15:12;;;;;;;12.55;4.40;;;;;;;;;;4957488;28;20051;-66
2022/08/27 06:17:42;;;;;;;10.88;4.32;;;;;;;;;;4961348;28;20529;-66
2022/08/27 06:20:13;;;;;;;15.85;5.03;;;;;;;;;;5023389;28;20061;-66
2022/08/27 06:22:44;;;;;;;10.50;4.40;;;;;;;;;;4991842;28;20574;-65
2022/08/27 06:25:15;;;;;;;9.77;3.72;;;;;;;;;;4991959;28;20198;-65
2022/08/27 06:27:45;;;;;;;8.93;3.88;;;;;;;;;;4992376;28;20061;-65
2022/08/27 06:30:16;;;;;;;11.38;4.05;;;;;;;;;;4991874;28;20059;-66
2022/08/27 06:32:46;;;;;;;10.88;4.30;;;;;;;;;;4991946;28;20050;-66
2022/08/27 06:35:17;;;;;;;11.68;5.07;;;;;;;;;;4991243;28;20047;-65
2022/08/27 06:37:49;;;;;;;10.50;4.63;;;;;;;;;;4973399;28;20058;-66
2022/08/27 06:40:20;;;;;;;10.82;4.47;;;;;;;;;;5011418;28;20053;-65
2022/08/27 06:42:50;;;;;;;9.45;4.00;;;;;;;;;;5027586;28;20042;-65
2022/08/27 06:45:21;;;;;;;11.70;4.75;;;;;;;;;;4995226;28;20057;-65
2022/08/27 06:47:51;;;;;;;11.38;4.60;;;;;;;;;;5011393;28;20069;-65
2022/08/27 06:50:21;;;;;;;12.05;4.32;;;;;;;;;;5011063;28;20040;-65
2022/08/27 06:52:55;;;;;;;13.32;5.10;;;;;;;;;;5032226;28;20057;-65
2022/08/27 06:55:25;;;;;;;9.05;4.97;;;;;;;;;;5050865;28;20041;-65
2022/08/27 06:57:56;;;;;;;16.30;4.90;;;;;;;;;;5050961;28;20053;-65
2022/08/27 07:00:26;;;;;;;10.38;4.55;;;;;;;;;;5062419;28;20061;-66
2022/08/27 07:02:57;;;;;;;10.07;3.97;;;;;;;;;;5037112;28;20040;-66
2022/08/27 07:05:27;;;;;;;9.25;4.07;;;;;;;;;;5053792;28;20063;-66
2022/08/27 07:07:58;;;;;;;16.90;5.15;;;;;;;;;;5070400;28;20056;-66
2022/08/27 07:10:28;;;;;;;11.18;4.07;;;;;;;;;;5050437;28;20568;-66
2022/08/27 07:13:00;;;;;;;12.70;4.35;;;;;;;;;;5050371;28;20068;-65
2022/08/27 07:15:31;;;;;;;11.10;3.92;;;;;;;;;;5050527;28;20064;-65
2022/08/27 07:18:03;;;;;;;12.23;3.80;;;;;;;;;;5050402;28;20052;-66
2022/08/27 07:20:33;;;;;;;10.45;4.70;;;;;;;;;;5050297;28;20072;-65
2022/08/27 07:23:04;;;;;;;9.68;3.90;;;;;;;;;;5017956;28;20053;-65
2022/08/27 07:25:41;;;;;;;16.73;5.28;;;;;;;;;;5050165;28;20071;-66
2022/08/27 07:28:11;;;;;;;11.18;4.05;;;;;;;;;;5050264;28;20520;-66
2022/08/27 07:30:42;;;;;;;9.73;4.15;;;;;;;;;;5050233;28;20041;-66
2022/08/27 07:33:13;;;;;;;10.07;4.22;;;;;;;;;;5050253;28;20057;-65
2022/08/27 07:35:44;;;;;;;8.68;3.78;;;;;;;;;;5050050;28;20049;-65
2022/08/27 07:38:14;;;;;;;11.25;4.90;;;;;;;;;;5001002;28;20160;-66
2022/08/27 07:40:45;;;;;;;13.38;4.32;;;;;;;;;;5021462;28;20053;-65
2022/08/27 07:46:04;;;;;;;10.60;4.03;;;;;;;;;;5015688;28;20442;-65
2022/08/27 07:48:35;;;;;;;8.77;3.67;;;;;;;;;;5038417;28;20057;-65
2022/08/27 07:51:14;;;;;;;10.23;4.13;;;;;;;;;;5049661;28;20064;-65
2022/08/27 07:53:45;;;;;;;10.02;3.78;;;;;;;;;;5049642;28;20064;-65
2022/08/27 07:56:16;;;;;;;10.75;4.00;;;;;;;;;;5033181;28;20057;-65
2022/08/27 07:58:46;;;;;;;12.27;4.10;;;;;;;;;;5033720;28;20562;-66
2022/08/27 08:01:18;;;;;;;10.20;4.30;;;;;;;;;;5033582;28;20440;-66
2022/08/27 08:03:48;;;;;;;8.60;3.90;;;;;;;;;;5049485;28;20489;-65
2022/08/27 08:06:19;;;;;;;15.20;4.35;;;;;;;;;;5049486;28;20060;-65
2022/08/27 08:08:49;;;;;;;12.43;4.20;;;;;;;;;;5000363;28;20048;-65
2022/08/27 08:11:20;;;;;;;9.98;4.00;;;;;;;;;;5037780;28;20497;-65
2022/08/27 08:13:51;;;;;;;10.80;4.13;;;;;;;;;;5053384;28;20045;-65
2022/08/27 08:16:24;;;;;;;9.07;4.13;;;;;;;;;;5069524;28;20463;-65
2022/08/27 08:18:59;;;;;;;14.10;4.40;;;;;;;;;;5069713;28;20051;-65
2022/08/27 08:21:29;;;;;;;9.50;4.13;;;;;;;;;;5053263;28;20060;-65
2022/08/27 08:24:01;;;;;;;8.95;4.65;;;;;;;;;;5069620;28;20055;-65
2022/08/27 08:26:31;;;;;;;7.70;4.35;;;;;;;;;;5069537;28;20044;-65
2022/08/27 08:29:03;;;;;;;12.82;4.35;;;;;;;;;;5053082;28;20053;-66
2022/08/27 08:31:34;;;;;;;8.02;3.88;;;;;;;;;;5085662;28;20044;-65
2022/08/27 08:34:05;;;;;;;15.63;3.78;;;;;;;;;;5053086;28;20095;-65
2022/08/27 08:36:35;;;;;;;10.57;3.90;;;;;;;;;;5069420;28;20049;-65
2022/08/27 08:39:05;;;;;;;11.23;3.83;;;;;;;;;;5053150;28;20420;-65
2022/08/27 08:41:49;;;;;;;10.80;3.72;;;;;;;;;;5070423;28;20444;-65
2022/08/27 08:44:49;;;;;;;8.70;3.78;;;;;;;;;;5071718;28;20041;-65
2022/08/27 08:47:25;;;;;;;8.27;3.90;;;;;;;;;;5052283;28;20044;-65
2022/08/27 08:50:21;;;;;;;7.90;3.42;;;;;;;;;;5033298;28;20064;-65
2022/08/27 08:53:01;;;;;;;10.30;3.78;;;;;;;;;;5048813;28;20416;-65
2022/08/27 08:55:49;;;;;;;8.95;3.88;;;;;;;;;;4999899;28;20053;-65
2022/08/27 08:58:35;;;;;;;13.10;3.55;;;;;;;;;;5049848;28;20409;-65
2022/08/27 09:01:07;;;;;;;11.05;4.40;;;;;;;;;;5052728;28;20460;-66
2022/08/27 09:03:41;;;;;;;11.27;4.00;;;;;;;;;;5032564;28;20536;-65
2022/08/27 09:06:19;;;;;;;10.30;3.92;;;;;;;;;;5052561;28;20055;-65
2022/08/27 09:08:49;;;;;;;8.98;3.95;;;;;;;;;;5052608;28;20060;-65
2022/08/27 09:11:38;;;;;;;11.20;3.97;;;;;;;;;;5052796;28;20413;-65
2022/08/27 09:14:20;;;;;;;13.55;4.50;;;;;;;;;;5052782;28;20053;-65
2022/08/27 09:16:51;;;;;;;12.20;4.30;;;;;;;;;;5012347;28;20561;-66
2022/08/27 09:19:26;;;;;;;11.40;4.15;;;;;;;;;;4973692;28;20059;-66
2022/08/27 09:22:28;;;;;;;9.23;4.13;;;;;;;;;;4973557;28;20051;-66
2022/08/27 09:25:04;;;;;;;9.48;4.07;;;;;;;;;;4960219;28;20059;-66
2022/08/27 09:27:39;;;;;;;13.32;4.15;;;;;;;;;;4944183;28;20059;-66
2022/08/27 09:30:19;;;;;;;9.95;3.85;;;;;;;;;;4935228;29;20056;-65
2022/08/27 09:33:02;;;;;;;15.73;4.40;;;;;;;;;;4903650;29;20551;-66
2022/08/27 09:35:43;;;;;;;10.35;4.00;;;;;;;;;;4912092;29;20055;-66
2022/08/27 09:38:34;;;;;;;10.70;4.28;;;;;;;;;;4897116;29;20064;-65
2022/08/27 09:41:23;;;;;;;10.63;4.13;;;;;;;;;;4897075;29;20440;-66
2022/08/27 09:43:58;;;;;;;13.15;5.55;;;;;;;;;;4916671;29;20465;-66
2022/08/27 09:46:28;;;;;;;10.90;4.40;;;;;;;;;;4934894;29;20059;-66
2022/08/27 09:49:14;;;;;;;12.20;4.68;;;;;;;;;;4934524;29;20056;-66
2022/08/27 09:51:46;;;;;;;12.48;4.47;;;;;;;;;;4915431;29;20056;-66
2022/08/27 09:54:40;;;;;;;11.45;6.22;;;;;;;;;;4938677;28;20057;-65
2022/08/27 09:57:13;;;;;;;12.20;5.75;;;;;;;;;;4964686;28;20051;-65
2022/08/27 09:59:53;;;;;;;15.32;6.00;;;;;;;;;;4910089;28;20106;-65
2022/08/27 10:02:25;;;;;;;16.02;7.68;;;;;;;;;;4941033;28;20055;-65
2022/08/27 10:05:01;;;;;;;17.20;7.45;;;;;;;;;;4964314;28;20061;-65
2022/08/27 10:07:43;;;;;;;16.48;7.53;;;;;;;;;;4992410;28;20062;-65
2022/08/27 10:10:21;;;;;;;21.75;9.50;;;;;;;;;;4975499;28;20054;-65
2022/08/27 10:13:04;;;;;;;19.02;9.18;;;;;;;;;;4982925;28;20053;-65
2022/08/27 10:16:08;;;;;;;19.92;9.27;;;;;;;;;;5011726;28;20061;-66
2022/08/27 10:18:56;;;;;;;22.73;9.48;;;;;;;;;;4956831;28;20057;-65
2022/08/27 10:22:04;;;;;;;22.98;8.98;;;;;;;;;;4972890;28;20098;-65
2022/08/27 10:25:05;;;;;;;16.27;6.93;;;;;;;;;;4972761;28;20050;-65
2022/08/27 10:28:09;;;;;;;14.82;7.68;;;;;;;;;;4990014;28;20054;-65
2022/08/27 10:31:01;;;;;;;25.83;10.75;;;;;;;;;;4995001;28;20049;-65
2022/08/27 10:33:50;;;;;;;18.20;9.52;;;;;;;;;;4991814;28;20069;-65
2022/08/27 10:36:43;;;;;;;16.70;7.60;;;;;;;;;;4975459;28;20066;-65
2022/08/27 10:39:22;;;;;;;11.50;5.32;;;;;;;;;;4972027;28;20050;-65
2022/08/27 10:41:59;;;;;;;11.55;4.90;;;;;;;;;;4956852;28;20645;-65
2022/08/27 10:44:42;;;;;;;14.00;5.97;;;;;;;;;;4940135;28;20062;-65
2022/08/27 10:47:22;;;;;;;15.38;6.70;;;;;;;;;;4972303;28;20646;-65
2022/08/27 10:50:10;;;;;;;21.80;10.02;;;;;;;;;;4972097;28;20537;-65
2022/08/27 10:53:06;;;;;;;17.63;6.45;;;;;;;;;;4971803;28;20055;-65
2022/08/27 10:55:51;;;;;;;13.55;6.70;;;;;;;;;;4981081;28;20052;-65
2022/08/27 10:58:48;;;;;;;15.15;7.38;;;;;;;;;;5050363;28;20405;-65
2022/08/27 11:01:36;;;;;;;13.07;6.18;;;;;;;;;;5050727;28;20049;-65
2022/08/27 11:04:44;;;;;;;9.45;4.95;;;;;;;;;;5050545;28;20405;-65
2022/08/27 11:07:27;;;;;;;13.80;6.47;;;;;;;;;;4991398;28;20059;-65
2022/08/27 11:10:01;;;;;;;16.10;6.85;;;;;;;;;;4991262;28;20410;-66
2022/08/27 11:12:40;;;;;;;16.95;7.68;;;;;;;;;;4991073;28;20046;-65
2022/08/27 11:15:21;;;;;;;14.30;7.53;;;;;;;;;;4991289;28;20077;-65
2022/08/27 11:18:16;;;;;;;16.77;8.38;;;;;;;;;;4973691;28;20410;-65
2022/08/27 11:20:58;;;;;;;12.00;6.30;;;;;;;;;;4985552;28;20051;-66
2022/08/27 11:23:40;;;;;;;15.52;7.10;;;;;;;;;;4970925;28;20059;-65
2022/08/27 11:26:12;;;;;;;9.93;5.78;;;;;;;;;;4987607;28;20055;-65
2022/08/27 11:29:00;;;;;;;15.68;6.72;;;;;;;;;;4990897;28;20050;-65
2022/08/27 11:31:37;;;;;;;15.27;5.28;;;;;;;;;;4993855;28;20045;-65
2022/08/27 11:34:24;;;;;;;16.13;6.40;;;;;;;;;;5010549;28;20458;-65
2022/08/27 11:37:27;;;;;;;12.73;5.35;;;;;;;;;;5010331;28;20058;-65
2022/08/27 11:40:18;;;;;;;12.90;5.30;;;;;;;;;;5010287;28;20054;-65
2022/08/27 11:42:55;;;;;;;12.13;5.13;;;;;;;;;;5036471;28;20065;-65
2022/08/27 11:45:38;;;;;;;9.30;4.40;;;;;;;;;;5070153;28;20052;-65
2022/08/27 11:48:30;;;;;;;17.88;4.90;;;;;;;;;;5020436;28;20083;-65
2022/08/27 11:51:05;;;;;;;9.73;4.75;;;;;;;;;;5069895;28;20508;-65
2022/08/27 11:53:41;;;;;;;7.55;3.53;;;;;;;;;;5069626;28;20467;-65
2022/08/27 11:56:40;;;;;;;9.98;4.47;;;;;;;;;;5019945;28;20051;-65
2022/08/27 11:59:28;;;;;;;8.57;4.05;;;;;;;;;;5049083;28;20048;-65
2022/08/27 12:02:18;;;;;;;12.55;5.93;;;;;;;;;;5049672;28;20149;-65
2022/08/27 12:04:54;;;;;;;8.15;4.90;;;;;;;;;;5049951;28;20563;-66
2022/08/27 12:07:29;;;;;;;15.15;5.03;;;;;;;;;;5049908;28;20041;-66
2022/08/27 12:10:29;;;;;;;10.05;4.95;;;;;;;;;;5033578;28;20075;-66
2022/08/27 12:13:23;;;;;;;9.63;5.50;;;;;;;;;;5038295;28;20055;-66
2022/08/27 12:16:15;;;;;;;11.43;5.60;;;;;;;;;;5069791;28;20052;-66
2022/08/27 12:18:52;;;;;;;11.00;5.53;;;;;;;;;;5085839;28;20051;-66
2022/08/27 12:21:35;;;;;;;15.82;5.75;;;;;;;;;;5069552;28;20436;-66
2022/08/27 12:24:48;;;;;;;8.98;5.00;;;;;;;;;;5069616;28;20051;-66
2022/08/27 12:27:23;;;;;;;13.25;4.97;;;;;;;;;;5068659;28;20068;-66
2022/08/27 12:30:18;;;;;;;7.65;3.75;;;;;;;;;;5036186;28;20044;-66
2022/08/27 12:32:51;;;;;;;10.15;4.65;;;;;;;;;;5053495;28;20049;-66
2022/08/27 12:35:30;;;;;;;8.20;3.70;;;;;;;;;;5073601;28;20059;-65
2022/08/27 12:38:19;;;;;;;6.43;2.70;;;;;;;;;;5075635;28;20063;-66
2022/08/27 12:40:53;;;;;;;7.55;3.20;;;;;;;;;;5075553;28;20049;-66
2022/08/27 12:43:27;;;;;;;5.80;3.03;;;;;;;;;;5075685;28;20048;-64
2022/08/27 12:46:00;;;;;;;6.65;2.67;;;;;;;;;;5075669;28;20044;-65
2022/08/27 12:48:41;;;;;;;6.07;2.50;;;;;;;;;;5075780;28;20055;-66
2022/08/27 12:51:35;;;;;;;7.93;3.03;;;;;;;;;;5089797;28;20064;-66
2022/08/27 12:54:12;;;;;;;12.75;3.30;;;;;;;;;;5075297;28;20045;-66
2022/08/27 12:57:03;;;;;;;4.80;2.55;;;;;;;;;;5075268;28;20048;-66
2022/08/27 12:59:48;;;;;;;5.85;2.80;;;;;;;;;;5040435;28;20044;-67
2022/08/27 13:02:30;;;;;;;;;;;;;;;;;;5040475;28;20060;-66
2022/08/27 13:05:05;;;;;;;6.72;2.50;;;;;;;;;;5073061;28;19920;-66
2022/08/27 13:07:42;;;;;;;12.07;3.67;;;;;;;;;;5072846;28;20404;-66
2022/08/27 13:10:25;;;;;;;8.18;3.08;;;;;;;;;;5075010;28;20049;-66
2022/08/27 13:13:11;;;;;;;8.73;4.03;;;;;;;;;;5074900;28;20542;-66
2022/08/27 13:15:49;;;;;;;10.50;4.80;;;;;;;;;;5056029;28;20479;-65
2022/08/27 13:18:20;;;;;;;5.18;3.20;;;;;;;;;;5074640;28;20063;-66
2022/08/27 13:21:02;;;;;;;5.82;2.75;;;;;;;;;;5056175;28;20048;-66
2022/08/27 13:23:34;;;;;;;6.30;3.05;;;;;;;;;;5074824;28;20051;-67
2022/08/27 13:26:10;;;;;;;5.25;2.72;;;;;;;;;;5074491;28;20043;-66
2022/08/27 13:28:42;;;;;;;6.38;3.03;;;;;;;;;;5074647;28;20040;-66
2022/08/27 13:31:13;;;;;;;;;;;;;;;;;;5075185;28;20403;-67
2022/08/27 13:33:44;;;;;;;4.53;2.60;;;;;;;;;;5039601;28;19921;-67
2022/08/27 13:36:32;;;;;;;;;;;;;;;;;;5089298;28;20412;-68
2022/08/27 13:39:05;;;;;;;10.13;2.97;;;;;;;;;;5074653;28;19942;-66
2022/08/27 13:41:37;;;;;;;4.32;2.42;;;;;;;;;;5074481;28;20416;-66
2022/08/27 13:44:15;;;;;;;4.90;2.60;;;;;;;;;;5054991;28;20519;-66
2022/08/27 13:46:53;;;;;;;5.63;2.75;;;;;;;;;;5071351;28;20052;-67
2022/08/27 13:49:26;;;;;;;5.85;2.92;;;;;;;;;;5072300;28;20156;-67
2022/08/27 13:51:59;;;;;;;8.70;2.70;;;;;;;;;;5072173;28;20052;-66
2022/08/27 13:54:32;;;;;;;5.68;3.00;;;;;;;;;;5091823;28;20048;-66
2022/08/27 13:57:08;;;;;;;5.38;2.17;;;;;;;;;;5092189;28;20055;-67
2022/08/27 13:59:40;;;;;;;4.13;2.65;;;;;;;;;;5058644;28;20508;-67
2022/08/27 14:02:11;;;;;;;6.60;2.72;;;;;;;;;;5051695;28;20528;-66
2022/08/27 14:04:44;;;;;;;6.28;2.75;;;;;;;;;;5051821;28;20488;-66
2022/08/27 14:07:22;;;;;;;5.38;2.70;;;;;;;;;;5051461;28;20059;-67
2022/08/27 14:10:05;;;;;;;8.15;2.67;;;;;;;;;;5002191;28;20060;-67
2022/08/27 14:12:39;;;;;;;5.30;2.17;;;;;;;;;;5051634;28;20064;-67
2022/08/27 14:15:20;;;;;;;8.18;2.70;;;;;;;;;;5051601;28;20057;-67
2022/08/27 14:17:51;;;;;;;6.68;2.60;;;;;;;;;;5051415;28;20049;-66
2022/08/27 14:20:22;;;;;;;6.78;2.50;;;;;;;;;;5051700;28;20493;-66
2022/08/27 14:22:53;;;;;;;4.72;2.30;;;;;;;;;;5002442;28;20057;-66
2022/08/27 14:25:23;;;;;;;5.10;2.25;;;;;;;;;;5018216;28;20053;-67
2022/08/27 14:27:56;;;;;;;4.82;2.00;;;;;;;;;;5051413;28;20053;-67
2022/08/27 14:30:27;;;;;;;6.43;3.15;;;;;;;;;;5051307;28;20044;-67
2022/08/27 14:33:00;;;;;;;5.30;3.08;;;;;;;;;;5038063;28;20060;-66
2022/08/27 14:35:33;;;;;;;6.03;3.33;;;;;;;;;;5051364;28;20044;-66
2022/08/27 14:38:20;;;;;;;6.85;3.60;;;;;;;;;;5035235;28;20049;-67
2022/08/27 14:40:53;;;;;;;5.03;3.33;;;;;;;;;;5069888;28;20053;-66
2022/08/27 14:43:23;;;;;;;6.57;4.20;;;;;;;;;;5054734;28;20074;-67
2022/08/27 14:45:55;;;;;;;11.77;4.97;;;;;;;;;;5073241;28;20447;-67
2022/08/27 14:48:30;;;;;;;12.05;4.45;;;;;;;;;;5038117;28;20049;-67
2022/08/27 14:51:07;;;;;;;7.15;4.53;;;;;;;;;;5071326;28;20060;-67
2022/08/27 14:53:37;;;;;;;7.75;4.00;;;;;;;;;;5054381;28;20508;-68
2022/08/27 14:56:07;;;;;;;8.70;4.10;;;;;;;;;;5070618;28;20055;-68
2022/08/27 14:58:38;;;;;;;10.25;4.57;;;;;;;;;;5071019;28;20068;-66
2022/08/27 15:01:09;;;;;;;8.10;4.00;;;;;;;;;;5054677;28;20052;-68
2022/08/27 15:03:47;;;;;;;9.43;4.45;;;;;;;;;;5054507;28;20052;-67
2022/08/27 15:06:24;;;;;;;5.47;4.03;;;;;;;;;;5087259;28;20522;-67
2022/08/27 15:08:54;;;;;;;8.45;4.20;;;;;;;;;;5070494;28;20052;-69
2022/08/27 15:11:28;;;;;;;12.60;4.35;;;;;;;;;;5070782;28;20055;-68
2022/08/27 15:14:02;;;;;;;6.88;4.43;;;;;;;;;;5070362;28;20067;-67
2022/08/27 15:16:40;;;;;;;9.85;4.80;;;;;;;;;;5070456;28;20075;-67
2022/08/27 15:19:14;;;;;;;8.18;4.38;;;;;;;;;;5087242;28;20057;-67
2022/08/27 15:21:46;;;;;;;8.77;5.25;;;;;;;;;;5070412;28;20048;-67
2022/08/27 15:24:24;;;;;;;10.18;5.65;;;;;;;;;;5070401;28;20566;-67
2022/08/27 15:26:56;;;;;;;5.38;3.67;;;;;;;;;;5070444;28;20215;-68
2022/08/27 15:29:27;;;;;;;8.65;3.90;;;;;;;;;;5070096;28;20060;-67
2022/08/27 15:31:58;;;;;;;7.72;4.60;;;;;;;;;;5070466;28;20049;-67
2022/08/27 15:34:28;;;;;;;6.00;3.40;;;;;;;;;;5071833;28;20420;-68
2022/08/27 15:36:58;;;;;;;4.25;2.70;;;;;;;;;;5072311;28;20400;-66